createdAt,value
2022-12-08T00:00:03.848Z,-14.96
2022-12-08T00:03:15.936Z,-14.49
2022-12-08T00:07:02.559Z,-13.92
2022-12-08T00:10:39.621Z,-12.07
2022-12-08T00:13:32.876Z,-12.25
2022-12-08T00:16:37.204Z,-10.81
2022-12-08T00:19:42.775Z,-11.03
2022-12-08T00:22:47.379Z,-12.01
2022-12-08T00:25:51.758Z,-10.52
2022-12-08T00:28:56.023Z,-9.86
2022-12-08T00:32:00.341Z,-10.48
2022-12-08T00:35:05.294Z,-9.91
2022-12-08T00:38:09.986Z,-9.24
2022-12-08T00:41:17.236Z,-10.07
2022-12-08T00:44:22.374Z,-10.50
2022-12-08T00:47:26.881Z,-10.95
2022-12-08T00:50:31.096Z,-10.66
2022-12-08T00:53:35.432Z,-10.59
2022-12-08T00:56:39.868Z,-8.73
2022-12-08T00:59:44.188Z,-9.06
2022-12-08T01:02:48.771Z,-8.90
2022-12-08T01:05:53.138Z,-9.46
2022-12-08T01:08:57.415Z,-7.70
2022-12-08T01:12:02.179Z,-6.67
2022-12-08T01:15:07.057Z,-7.20
2022-12-08T01:18:11.520Z,-7.60
2022-12-08T01:21:16.091Z,-7.41
2022-12-08T01:24:22.325Z,-6.36
2022-12-08T01:27:26.713Z,-6.46
2022-12-08T01:30:31.195Z,-5.84
2022-12-08T01:33:35.574Z,-5.27
2022-12-08T01:36:40.332Z,-5.40
2022-12-08T01:39:44.864Z,-4.68
2022-12-08T01:42:50.229Z,-4.56
2022-12-08T01:45:54.777Z,-4.74
2022-12-08T01:49:10.096Z,-5.11
2022-12-08T01:52:34.920Z,-7.27
2022-12-08T01:56:11.060Z,-7.48
2022-12-08T01:59:15.491Z,-7.78
2022-12-08T02:02:20.070Z,-7.85
2022-12-08T02:05:28.125Z,-7.22
2022-12-08T02:08:34.343Z,-7.59
2022-12-08T02:11:38.476Z,-8.01
2022-12-08T02:14:42.861Z,-7.72
2022-12-08T02:18:20.951Z,-7.06
2022-12-08T02:21:38.296Z,-7.97
2022-12-08T02:24:45.459Z,-7.33
2022-12-08T02:28:01.945Z,-6.40
2022-12-08T02:31:18.604Z,-5.99
2022-12-08T02:34:38.704Z,-6.00
2022-12-08T02:37:47.844Z,-6.10
2022-12-08T02:41:29.089Z,-6.31
2022-12-08T02:44:47.067Z,-6.45
2022-12-08T02:47:52.860Z,-6.68
2022-12-08T02:50:57.430Z,-6.77
2022-12-08T02:54:03.178Z,-6.60
2022-12-08T02:57:28.007Z,-6.61
2022-12-08T03:00:46.516Z,-6.55
2022-12-08T03:04:02.847Z,-6.59
2022-12-08T03:07:23.907Z,-6.43
2022-12-08T03:10:37.697Z,-6.55
2022-12-08T03:13:46.255Z,-6.51
2022-12-08T03:16:54.984Z,-6.81
2022-12-08T03:20:04.651Z,-7.01
2022-12-08T03:23:13.412Z,-7.20
2022-12-08T03:26:40.274Z,-7.29
2022-12-08T03:29:45.054Z,-7.34
2022-12-08T03:33:18.619Z,-7.11
2022-12-08T03:36:24.321Z,-7.04
2022-12-08T03:39:28.708Z,-6.93
2022-12-08T03:42:33.201Z,-6.89
2022-12-08T03:45:37.643Z,-7.09
2022-12-08T03:48:41.942Z,-6.84
2022-12-08T03:51:46.629Z,-7.14
2022-12-08T03:54:51.091Z,-7.90
2022-12-08T03:57:55.419Z,-7.41
2022-12-08T04:00:59.907Z,-7.31
2022-12-08T04:04:04.249Z,-7.42
2022-12-08T04:07:08.751Z,-7.53
2022-12-08T04:10:13.942Z,-7.57
2022-12-08T04:13:18.274Z,-6.92
2022-12-08T04:16:25.565Z,-6.71
2022-12-08T04:19:30.103Z,-6.70
2022-12-08T04:22:34.515Z,-6.33
2022-12-08T04:25:39.633Z,-6.31
2022-12-08T04:28:44.336Z,-6.37
2022-12-08T04:31:48.942Z,-6.32
2022-12-08T04:34:53.192Z,-6.39
2022-12-08T04:37:57.757Z,-6.57
2022-12-08T04:41:02.695Z,-6.20
2022-12-08T04:44:07.093Z,-6.36
2022-12-08T04:47:11.436Z,-6.31
2022-12-08T04:50:15.935Z,-6.70
2022-12-08T04:53:20.914Z,-6.77
2022-12-08T04:56:25.101Z,-7.00
2022-12-08T04:59:29.381Z,-6.97
2022-12-08T05:02:33.788Z,-6.52
2022-12-08T05:05:38.400Z,-6.28
2022-12-08T05:08:44.164Z,-6.28
2022-12-08T05:11:49.284Z,-6.28
2022-12-08T05:14:53.989Z,-6.42
2022-12-08T05:17:58.389Z,-6.45
2022-12-08T05:21:05.039Z,-6.35
2022-12-08T05:24:09.964Z,-6.53
2022-12-08T05:27:14.459Z,-6.62
2022-12-08T05:30:18.838Z,-6.63
2022-12-08T05:33:23.129Z,-6.38
2022-12-08T05:36:27.623Z,-6.35
2022-12-08T05:39:32.202Z,-6.60
2022-12-08T05:42:36.666Z,-6.50
2022-12-08T05:45:42.380Z,-6.44
2022-12-08T05:48:47.120Z,-6.96
2022-12-08T05:51:51.867Z,-6.79
2022-12-08T05:54:56.188Z,-6.81
2022-12-08T05:58:06.109Z,-7.22
2022-12-08T06:01:26.525Z,-7.26
2022-12-08T06:04:30.786Z,-7.31
2022-12-08T06:07:36.224Z,-7.39
2022-12-08T06:10:44.915Z,-7.62
2022-12-08T06:13:49.883Z,-7.49
2022-12-08T06:16:54.580Z,-7.24
2022-12-08T06:19:58.949Z,-7.69
2022-12-08T06:23:04.331Z,-7.77
2022-12-08T06:26:10.595Z,-7.57
2022-12-08T06:29:15.143Z,-7.58
2022-12-08T06:32:24.367Z,-7.82
2022-12-08T06:35:31.655Z,-8.01
2022-12-08T06:38:39.298Z,-7.94
2022-12-08T06:42:05.865Z,-8.09
2022-12-08T06:45:11.089Z,-8.19
2022-12-08T06:48:15.483Z,-8.38
2022-12-08T06:51:23.717Z,-8.44
2022-12-08T06:54:28.603Z,-8.51
2022-12-08T06:57:32.822Z,-8.69
2022-12-08T07:00:37.151Z,-8.38
2022-12-08T07:03:44.421Z,-8.73
2022-12-08T07:06:49.028Z,-8.90
2022-12-08T07:09:53.437Z,-9.15
2022-12-08T07:12:58.054Z,-9.39
2022-12-08T07:16:02.394Z,-9.36
2022-12-08T07:19:07.562Z,-9.71
2022-12-08T07:22:12.258Z,-9.49
2022-12-08T07:25:16.839Z,-9.67
2022-12-08T07:28:21.102Z,-9.69
2022-12-08T07:31:27.617Z,-9.90
2022-12-08T07:34:31.776Z,-9.82
2022-12-08T07:37:38.553Z,-9.70
2022-12-08T07:40:43.045Z,-9.67
2022-12-08T07:43:47.786Z,-9.67
2022-12-08T07:46:52.837Z,-9.83
2022-12-08T07:49:57.288Z,-9.90
2022-12-08T07:53:01.836Z,-10.01
2022-12-08T07:56:08.461Z,-9.96
2022-12-08T07:59:13.262Z,-10.04
2022-12-08T08:02:26.920Z,-9.83
2022-12-08T08:05:31.577Z,-9.98
2022-12-08T08:08:36.034Z,-10.12
2022-12-08T08:11:40.655Z,-10.49
2022-12-08T08:14:44.989Z,-10.39
2022-12-08T08:17:52.568Z,-10.27
2022-12-08T08:20:58.043Z,-10.72
2022-12-08T08:24:02.329Z,-10.48
2022-12-08T08:27:06.899Z,-10.41
2022-12-08T08:30:19.613Z,-10.48
2022-12-08T08:33:24.789Z,-10.57
2022-12-08T08:36:29.842Z,-10.55
2022-12-08T08:39:34.174Z,-10.39
2022-12-08T08:42:38.739Z,-10.49
2022-12-08T08:45:43.028Z,-10.69
2022-12-08T08:48:47.952Z,-10.78
2022-12-08T08:51:52.404Z,-10.62
2022-12-08T08:54:57.095Z,-10.76
2022-12-08T08:58:02.757Z,-10.82
2022-12-08T09:01:07.502Z,-10.80
2022-12-08T09:04:12.164Z,-10.65
2022-12-08T09:07:17.367Z,-10.63
2022-12-08T09:10:21.635Z,-10.76
2022-12-08T09:13:26.120Z,-10.76
2022-12-08T09:16:30.871Z,-10.74
2022-12-08T09:19:37.177Z,-10.84
2022-12-08T09:22:41.832Z,-10.80
2022-12-08T09:25:47.149Z,-11.08
2022-12-08T09:28:52.017Z,-11.47
2022-12-08T09:31:58.444Z,-12.07
2022-12-08T09:35:03.231Z,-12.55
2022-12-08T09:38:07.796Z,-13.12
2022-12-08T09:41:36.461Z,-13.40
2022-12-08T09:44:58.234Z,-13.39
2022-12-08T09:48:24.779Z,-13.01
2022-12-08T09:51:36.789Z,-12.99
2022-12-08T09:54:41.492Z,-13.30
2022-12-08T09:57:47.700Z,-13.98
2022-12-08T10:00:54.111Z,-14.14
2022-12-08T10:03:59.962Z,-14.06
2022-12-08T10:07:16.932Z,-13.91
2022-12-08T10:10:36.846Z,-14.22
2022-12-08T10:14:23.739Z,-14.40
2022-12-08T10:17:36.988Z,-14.45
2022-12-08T10:20:48.227Z,-14.39
2022-12-08T10:24:03.500Z,-14.59
2022-12-08T10:27:13.407Z,-14.78
2022-12-08T10:30:20.189Z,-14.64
2022-12-08T10:33:28.638Z,-14.78
2022-12-08T10:36:53.124Z,-14.70
2022-12-08T10:40:02.996Z,-15.00
2022-12-08T10:43:16.975Z,-15.53
2022-12-08T10:46:29.429Z,-15.47
2022-12-08T10:49:37.728Z,-15.82
2022-12-08T10:52:42.924Z,-15.76
2022-12-08T10:56:07.531Z,-16.01
2022-12-08T10:59:18.651Z,-16.15
2022-12-08T11:02:23.587Z,-15.87
2022-12-08T11:05:38.523Z,-15.76
2022-12-08T11:08:57.581Z,-15.81
2022-12-08T11:12:10.298Z,-15.90
2022-12-08T11:15:19.363Z,-15.78
2022-12-08T11:18:30.897Z,-15.92
2022-12-08T11:21:38.781Z,-16.09
2022-12-08T11:24:44.531Z,-16.00
2022-12-08T11:27:54.890Z,-15.96
2022-12-08T11:31:10.374Z,-16.13
2022-12-08T11:34:24.980Z,-16.18
2022-12-08T11:37:43.888Z,-16.23
2022-12-08T11:40:49.289Z,-15.88
2022-12-08T11:44:09.464Z,-16.10
2022-12-08T11:47:55.824Z,-16.32
2022-12-08T11:51:10.709Z,-16.40
2022-12-08T11:54:33.217Z,-16.55
2022-12-08T11:57:37.624Z,-16.23
2022-12-08T12:00:44.580Z,-16.52
2022-12-08T12:04:02.418Z,-16.70
2022-12-08T12:07:27.992Z,-16.51
2022-12-08T12:10:58.407Z,-16.65
2022-12-08T12:14:15.452Z,-16.41
2022-12-08T12:17:32.526Z,-16.24
2022-12-08T12:20:51.123Z,-16.16
2022-12-08T12:24:05.690Z,-16.66
2022-12-08T12:27:34.025Z,-16.67
2022-12-08T12:31:13.331Z,-16.93
2022-12-08T12:34:34.618Z,-17.04
2022-12-08T12:37:43.266Z,-17.37
2022-12-08T12:40:47.795Z,-17.26
2022-12-08T12:44:25.300Z,-16.90
2022-12-08T12:47:57.275Z,-17.07
2022-12-08T12:51:01.728Z,-17.00
2022-12-08T12:54:22.793Z,-17.03
2022-12-08T12:57:38.657Z,-17.04
2022-12-08T13:00:43.016Z,-17.19
2022-12-08T13:04:11.360Z,-17.68
2022-12-08T13:07:27.573Z,-17.39
2022-12-08T13:10:49.551Z,-17.45
2022-12-08T13:13:59.679Z,-17.30
2022-12-08T13:17:09.424Z,-17.13
2022-12-08T13:20:24.049Z,-17.18
2022-12-08T13:23:50.785Z,-17.22
2022-12-08T13:27:07.613Z,-17.52
2022-12-08T13:30:43.414Z,-17.80
2022-12-08T13:33:48.642Z,-17.24
2022-12-08T13:36:55.738Z,-17.65
2022-12-08T13:40:06.765Z,-17.56
2022-12-08T13:43:44.634Z,-17.99
2022-12-08T13:57:51.645Z,-17.86
2022-12-08T14:01:06.731Z,-17.28
2022-12-08T14:04:42.588Z,-18.14
2022-12-08T14:07:49.526Z,-18.18
2022-12-08T14:10:59.999Z,-18.23
2022-12-08T14:14:13.038Z,-18.25
2022-12-08T14:17:23.477Z,-18.66
2022-12-08T14:20:46.351Z,-19.11
2022-12-08T14:24:03.088Z,-18.31
2022-12-08T14:27:11.212Z,-18.02
2022-12-08T14:30:15.865Z,-18.60
2022-12-08T14:33:20.712Z,-18.82
2022-12-08T14:36:25.690Z,-18.20
2022-12-08T14:39:30.012Z,-18.20
2022-12-08T14:43:09.625Z,-18.00
2022-12-08T14:46:24.323Z,-18.06
2022-12-08T14:49:36.982Z,-18.17
2022-12-08T14:52:45.730Z,-18.09
2022-12-08T14:55:50.661Z,-18.39
2022-12-08T14:59:19.305Z,-18.49
2022-12-08T15:02:32.323Z,-18.61
2022-12-08T15:05:40.239Z,-18.67
2022-12-08T15:08:57.131Z,-18.54
2022-12-08T15:12:06.371Z,-18.27
2022-12-08T15:15:10.819Z,-18.46
2022-12-08T15:18:19.600Z,-18.39
2022-12-08T15:21:32.105Z,-18.51
2022-12-08T15:24:36.656Z,-18.74
2022-12-08T15:27:49.777Z,-18.45
2022-12-08T15:30:58.033Z,-18.35
2022-12-08T15:34:02.936Z,-18.43
2022-12-08T15:37:21.277Z,-18.48
2022-12-08T15:40:28.067Z,-19.11
2022-12-08T15:43:33.571Z,-19.12
2022-12-08T15:46:37.815Z,-19.09
2022-12-08T15:49:42.744Z,-18.65
2022-12-08T15:52:47.384Z,-18.66
2022-12-08T15:59:22.183Z,-18.67
2022-12-08T16:02:34.284Z,-18.88
2022-12-08T16:06:20.493Z,-19.26
2022-12-08T16:09:18.257Z,-19.27
2022-12-08T16:16:12.475Z,-19.17
2022-12-08T16:19:16.952Z,-19.00
2022-12-08T16:26:16.748Z,-19.33
2022-12-08T16:29:21.507Z,-19.69
2022-12-08T16:32:27.067Z,-19.01
2022-12-08T16:35:32.350Z,-18.84
2022-12-08T16:38:36.654Z,-19.02
2022-12-08T16:41:59.448Z,-19.08
2022-12-08T16:45:25.084Z,-18.85
2022-12-08T16:48:29.805Z,-19.26
2022-12-08T16:51:33.907Z,-18.77
2022-12-08T16:54:38.358Z,-19.05
2022-12-08T16:57:43.775Z,-18.85
2022-12-08T17:00:48.294Z,-18.97
2022-12-08T17:04:22.383Z,-19.36
2022-12-08T17:07:17.135Z,-18.84
2022-12-08T17:10:24.683Z,-19.09
2022-12-08T17:13:28.951Z,-19.02
2022-12-08T17:16:33.355Z,-18.92
2022-12-08T17:19:37.744Z,-19.03
2022-12-08T17:22:42.415Z,-19.45
2022-12-08T17:25:46.815Z,-19.18
2022-12-08T17:29:00.697Z,-19.29
2022-12-08T17:32:06.030Z,-19.20
2022-12-08T17:35:11.272Z,-18.94
2022-12-08T17:38:15.921Z,-19.12
2022-12-08T17:41:20.105Z,-18.85
2022-12-08T17:44:24.773Z,-18.95
2022-12-08T17:47:29.083Z,-19.37
2022-12-08T17:50:33.475Z,-19.39
2022-12-08T17:53:38.064Z,-19.41
2022-12-08T17:56:42.325Z,-18.87
2022-12-08T17:59:46.833Z,-18.78
2022-12-08T18:02:51.492Z,-18.84
2022-12-08T18:05:56.103Z,-18.93
2022-12-08T18:09:02.124Z,-18.90
2022-12-08T18:12:06.702Z,-19.12
2022-12-08T18:15:16.305Z,-19.16
2022-12-08T18:18:21.096Z,-19.19
2022-12-08T18:21:25.399Z,-19.42
2022-12-08T18:24:30.276Z,-19.56
2022-12-08T18:27:39.920Z,-19.93
2022-12-08T18:30:47.352Z,-19.78
2022-12-08T18:33:53.121Z,-19.59
2022-12-08T18:36:57.531Z,-19.72
2022-12-08T18:40:02.192Z,-20.02
2022-12-08T18:43:07.321Z,-20.03
2022-12-08T18:46:14.353Z,-19.85
2022-12-08T18:49:22.398Z,-19.90
2022-12-08T18:52:32.302Z,-20.15
2022-12-08T18:55:38.975Z,-20.27
2022-12-08T18:58:43.389Z,-19.90
2022-12-08T19:01:47.600Z,-19.85
2022-12-08T19:04:52.120Z,-19.89
2022-12-08T19:07:56.772Z,-20.01
2022-12-08T19:11:01.946Z,-20.10
2022-12-08T19:14:06.661Z,-19.76
2022-12-08T19:17:10.970Z,-19.84
2022-12-08T19:20:15.944Z,-20.03
2022-12-08T19:23:20.115Z,-19.91
2022-12-08T19:26:24.383Z,-20.13
2022-12-08T19:29:28.945Z,-19.80
2022-12-08T19:32:33.239Z,-19.55
2022-12-08T19:35:37.918Z,-19.85
2022-12-08T19:39:01.284Z,-19.89
2022-12-08T19:42:32.600Z,-20.13
2022-12-08T19:45:37.590Z,-20.21
2022-12-08T19:48:42.191Z,-20.00
2022-12-08T19:51:46.451Z,-20.27
2022-12-08T19:54:51.032Z,-20.46
2022-12-08T19:57:55.691Z,-20.55
2022-12-08T20:01:00.079Z,-20.56
2022-12-08T20:04:04.687Z,-20.43
2022-12-08T20:07:09.115Z,-20.69
2022-12-08T20:10:19.976Z,-20.64
2022-12-08T20:13:42.612Z,-20.44
2022-12-08T20:16:47.276Z,-20.57
2022-12-08T20:19:51.918Z,-20.38
2022-12-08T20:22:56.027Z,-20.77
2022-12-08T20:26:00.400Z,-20.42
2022-12-08T20:29:05.201Z,-20.50
2022-12-08T20:32:09.494Z,-20.58
2022-12-08T20:35:14.107Z,-20.38
2022-12-08T20:38:18.378Z,-20.43
2022-12-08T20:41:27.267Z,-20.42
2022-12-08T20:44:31.934Z,-20.47
2022-12-08T20:47:37.973Z,-20.32
2022-12-08T20:50:42.688Z,-20.25
2022-12-08T20:53:47.665Z,-20.35
2022-12-08T20:56:52.088Z,-20.36
2022-12-08T20:59:56.710Z,-20.33
2022-12-08T21:03:03.336Z,-20.32
2022-12-08T21:06:08.385Z,-20.31
2022-12-08T21:09:12.615Z,-20.38
2022-12-08T21:12:17.303Z,-20.49
2022-12-08T21:15:22.228Z,-20.80
2022-12-08T21:18:27.047Z,-20.31
2022-12-08T21:21:31.213Z,-20.42
2022-12-08T21:24:35.752Z,-20.87
2022-12-08T21:27:40.631Z,-20.61
2022-12-08T21:30:45.328Z,-20.71
2022-12-08T21:33:50.226Z,-21.06
2022-12-08T21:36:54.742Z,-21.20
2022-12-08T21:39:59.040Z,-21.28
2022-12-08T21:43:06.973Z,-21.31
2022-12-08T21:46:22.392Z,-21.45
2022-12-08T21:49:27.196Z,-21.09
2022-12-08T21:52:31.934Z,-21.04
2022-12-08T21:55:36.578Z,-21.03
2022-12-08T21:58:41.238Z,-21.01
2022-12-08T22:01:45.950Z,-20.89
2022-12-08T22:04:50.738Z,-20.95
2022-12-08T22:07:55.194Z,-20.79
2022-12-08T22:10:59.615Z,-20.79
2022-12-08T22:14:04.688Z,-20.77
2022-12-08T22:17:10.892Z,-20.87
2022-12-08T22:20:17.296Z,-21.27
2022-12-08T22:23:22.208Z,-21.28
2022-12-08T22:26:26.775Z,-21.47
2022-12-08T22:29:31.171Z,-21.26
2022-12-08T22:32:35.617Z,-21.26
2022-12-08T22:35:40.167Z,-21.05
2022-12-08T22:38:44.801Z,-21.19
2022-12-08T22:41:49.279Z,-20.88
2022-12-08T22:44:53.358Z,-21.13
2022-12-08T22:47:57.586Z,-21.33
2022-12-08T22:51:02.574Z,-21.07
2022-12-08T22:54:07.160Z,-20.87
2022-12-08T22:57:12.082Z,-20.70
2022-12-08T23:00:16.335Z,-20.78
2022-12-08T23:03:20.769Z,-20.61
2022-12-08T23:06:27.042Z,-20.55
2022-12-08T23:09:31.884Z,-20.98
2022-12-08T23:12:36.162Z,-20.39
2022-12-08T23:15:42.092Z,-20.21
2022-12-08T23:18:47.464Z,-20.08
2022-12-08T23:21:51.683Z,-20.13
2022-12-08T23:24:56.165Z,-20.26
2022-12-08T23:28:00.771Z,-20.14
2022-12-08T23:31:09.511Z,-20.09
2022-12-08T23:34:13.940Z,-19.67
2022-12-08T23:37:18.535Z,-19.11
2022-12-08T23:40:22.901Z,-18.84
2022-12-08T23:43:27.560Z,-17.98
2022-12-08T23:46:32.033Z,-17.47
2022-12-08T23:49:36.249Z,-16.64
2022-12-08T23:52:40.749Z,-15.48
2022-12-08T23:55:45.103Z,-15.13
2022-12-08T23:58:49.649Z,-14.32
